sensor_id;sensor_type;location;lat;lon;timestamp;temperature;humidity
35127;DHT22;21300;52.006;5.798;2022-10-22T00:00:47;13.40;95.50
35127;DHT22;21300;52.006;5.798;2022-10-22T00:03:12;13.40;95.50
35127;DHT22;21300;52.006;5.798;2022-10-22T00:05:38;13.30;95.50
35127;DHT22;21300;52.006;5.798;2022-10-22T00:08:03;13.30;95.50
35127;DHT22;21300;52.006;5.798;2022-10-22T00:10:29;13.30;95.50
35127;DHT22;21300;52.006;5.798;2022-10-22T00:12:55;13.30;95.50
35127;DHT22;21300;52.006;5.798;2022-10-22T00:15:20;13.30;95.50
35127;DHT22;21300;52.006;5.798;2022-10-22T00:17:46;13.30;95.50
35127;DHT22;21300;52.006;5.798;2022-10-22T00:20:14;13.30;95.50
35127;DHT22;21300;52.006;5.798;2022-10-22T00:22:39;13.30;95.60
35127;DHT22;21300;52.006;5.798;2022-10-22T00:25:05;13.30;95.60
35127;DHT22;21300;52.006;5.798;2022-10-22T00:27:31;13.20;95.50
35127;DHT22;21300;52.006;5.798;2022-10-22T00:29:56;13.20;95.50
35127;DHT22;21300;52.006;5.798;2022-10-22T00:32:22;13.20;95.60
35127;DHT22;21300;52.006;5.798;2022-10-22T00:34:47;13.20;95.50
35127;DHT22;21300;52.006;5.798;2022-10-22T00:37:13;13.20;95.60
35127;DHT22;21300;52.006;5.798;2022-10-22T00:39:38;13.20;95.60
35127;DHT22;21300;52.006;5.798;2022-10-22T00:42:04;13.20;95.60
35127;DHT22;21300;52.006;5.798;2022-10-22T00:47:24;13.10;95.60
35127;DHT22;21300;52.006;5.798;2022-10-22T00:49:52;13.20;95.60
35127;DHT22;21300;52.006;5.798;2022-10-22T00:52:19;13.20;95.60
35127;DHT22;21300;52.006;5.798;2022-10-22T00:54:45;13.10;95.60
35127;DHT22;21300;52.006;5.798;2022-10-22T00:57:11;13.10;95.60
35127;DHT22;21300;52.006;5.798;2022-10-22T00:59:37;13.10;95.60
35127;DHT22;21300;52.006;5.798;2022-10-22T01:02:03;13.10;95.60
35127;DHT22;21300;52.006;5.798;2022-10-22T01:04:28;13.10;95.60
35127;DHT22;21300;52.006;5.798;2022-10-22T01:06:54;13.10;95.60
35127;DHT22;21300;52.006;5.798;2022-10-22T01:09:42;13.10;95.60
35127;DHT22;21300;52.006;5.798;2022-10-22T01:12:11;13.10;95.60
35127;DHT22;21300;52.006;5.798;2022-10-22T01:14:58;13.10;95.60
35127;DHT22;21300;52.006;5.798;2022-10-22T01:17:58;13.10;95.60
35127;DHT22;21300;52.006;5.798;2022-10-22T01:20:45;13.10;95.60
35127;DHT22;21300;52.006;5.798;2022-10-22T01:23:36;13.10;95.60
35127;DHT22;21300;52.006;5.798;2022-10-22T01:29:02;13.10;95.60
35127;DHT22;21300;52.006;5.798;2022-10-22T01:31:33;13.00;95.60
35127;DHT22;21300;52.006;5.798;2022-10-22T01:34:01;13.00;95.60
35127;DHT22;21300;52.006;5.798;2022-10-22T01:36:30;13.00;95.60
35127;DHT22;21300;52.006;5.798;2022-10-22T01:38:58;13.00;95.60
35127;DHT22;21300;52.006;5.798;2022-10-22T01:41:27;13.00;95.60
35127;DHT22;21300;52.006;5.798;2022-10-22T01:43:53;13.00;95.60
35127;DHT22;21300;52.006;5.798;2022-10-22T01:46:21;13.00;95.60
35127;DHT22;21300;52.006;5.798;2022-10-22T01:49:10;13.10;95.70
35127;DHT22;21300;52.006;5.798;2022-10-22T01:54:19;13.00;95.60
35127;DHT22;21300;52.006;5.798;2022-10-22T01:56:52;13.00;95.70
35127;DHT22;21300;52.006;5.798;2022-10-22T02:02:40;13.00;95.60
35127;DHT22;21300;52.006;5.798;2022-10-22T02:05:14;13.00;95.60
35127;DHT22;21300;52.006;5.798;2022-10-22T02:07:46;13.00;95.60
35127;DHT22;21300;52.006;5.798;2022-10-22T02:10:13;13.00;95.70
35127;DHT22;21300;52.006;5.798;2022-10-22T02:12:40;13.00;95.70
35127;DHT22;21300;52.006;5.798;2022-10-22T02:15:08;13.00;95.70
35127;DHT22;21300;52.006;5.798;2022-10-22T02:17:36;13.00;95.70
35127;DHT22;21300;52.006;5.798;2022-10-22T02:20:15;12.90;95.60
35127;DHT22;21300;52.006;5.798;2022-10-22T02:22:42;12.90;95.70
35127;DHT22;21300;52.006;5.798;2022-10-22T02:25:10;12.90;95.70
35127;DHT22;21300;52.006;5.798;2022-10-22T02:28:12;12.90;95.70
35127;DHT22;21300;52.006;5.798;2022-10-22T02:30:43;12.90;95.70
35127;DHT22;21300;52.006;5.798;2022-10-22T02:33:44;12.90;96.00
35127;DHT22;21300;52.006;5.798;2022-10-22T02:36:11;12.90;95.70
35127;DHT22;21300;52.006;5.798;2022-10-22T02:38:38;12.90;95.70
35127;DHT22;21300;52.006;5.798;2022-10-22T02:41:05;12.90;95.70
35127;DHT22;21300;52.006;5.798;2022-10-22T02:43:39;12.90;95.70
35127;DHT22;21300;52.006;5.798;2022-10-22T02:46:04;12.90;95.70
35127;DHT22;21300;52.006;5.798;2022-10-22T02:48:30;12.90;95.70
35127;DHT22;21300;52.006;5.798;2022-10-22T02:50:55;12.90;95.70
35127;DHT22;21300;52.006;5.798;2022-10-22T02:53:21;12.90;95.70
35127;DHT22;21300;52.006;5.798;2022-10-22T02:55:47;12.90;95.80
35127;DHT22;21300;52.006;5.798;2022-10-22T02:58:12;12.90;95.80
35127;DHT22;21300;52.006;5.798;2022-10-22T03:00:38;12.90;95.80
35127;DHT22;21300;52.006;5.798;2022-10-22T03:03:04;12.90;95.80
35127;DHT22;21300;52.006;5.798;2022-10-22T03:05:29;12.80;95.70
35127;DHT22;21300;52.006;5.798;2022-10-22T03:07:55;12.80;95.80
35127;DHT22;21300;52.006;5.798;2022-10-22T03:10:20;12.90;95.80
35127;DHT22;21300;52.006;5.798;2022-10-22T03:12:46;12.90;95.80
35127;DHT22;21300;52.006;5.798;2022-10-22T03:15:12;12.80;95.80
35127;DHT22;21300;52.006;5.798;2022-10-22T03:17:38;12.80;95.80
35127;DHT22;21300;52.006;5.798;2022-10-22T03:20:04;12.80;95.80
35127;DHT22;21300;52.006;5.798;2022-10-22T03:22:32;12.80;95.70
35127;DHT22;21300;52.006;5.798;2022-10-22T03:27:46;12.80;95.80
35127;DHT22;21300;52.006;5.798;2022-10-22T03:30:12;12.80;95.70
35127;DHT22;21300;52.006;5.798;2022-10-22T03:32:38;12.80;95.70
35127;DHT22;21300;52.006;5.798;2022-10-22T03:35:04;12.80;95.70
35127;DHT22;21300;52.006;5.798;2022-10-22T03:37:31;12.80;95.70
35127;DHT22;21300;52.006;5.798;2022-10-22T03:39:58;12.80;95.70
35127;DHT22;21300;52.006;5.798;2022-10-22T03:42:23;12.80;95.80
35127;DHT22;21300;52.006;5.798;2022-10-22T03:44:49;12.80;95.80
35127;DHT22;21300;52.006;5.798;2022-10-22T03:47:15;12.80;95.70
35127;DHT22;21300;52.006;5.798;2022-10-22T03:49:40;12.80;95.80
35127;DHT22;21300;52.006;5.798;2022-10-22T03:52:08;12.70;95.70
35127;DHT22;21300;52.006;5.798;2022-10-22T03:54:34;12.70;95.70
35127;DHT22;21300;52.006;5.798;2022-10-22T03:57:00;12.80;95.80
35127;DHT22;21300;52.006;5.798;2022-10-22T03:59:26;12.80;95.80
35127;DHT22;21300;52.006;5.798;2022-10-22T04:01:51;12.80;95.80
35127;DHT22;21300;52.006;5.798;2022-10-22T04:04:17;12.70;95.80
35127;DHT22;21300;52.006;5.798;2022-10-22T04:06:42;12.70;95.80
35127;DHT22;21300;52.006;5.798;2022-10-22T04:09:08;12.80;95.80
35127;DHT22;21300;52.006;5.798;2022-10-22T04:11:33;12.70;95.80
35127;DHT22;21300;52.006;5.798;2022-10-22T04:13:59;12.70;95.80
35127;DHT22;21300;52.006;5.798;2022-10-22T04:16:25;12.70;95.80
35127;DHT22;21300;52.006;5.798;2022-10-22T04:18:55;12.80;95.80
35127;DHT22;21300;52.006;5.798;2022-10-22T04:21:21;12.70;95.70
35127;DHT22;21300;52.006;5.798;2022-10-22T04:23:49;12.70;95.80
35127;DHT22;21300;52.006;5.798;2022-10-22T04:26:16;12.70;95.80
35127;DHT22;21300;52.006;5.798;2022-10-22T04:28:42;12.70;95.80
35127;DHT22;21300;52.006;5.798;2022-10-22T04:31:13;12.70;95.80
35127;DHT22;21300;52.006;5.798;2022-10-22T04:33:39;12.70;95.80
35127;DHT22;21300;52.006;5.798;2022-10-22T04:36:07;12.70;95.80
35127;DHT22;21300;52.006;5.798;2022-10-22T04:38:33;12.70;95.80
35127;DHT22;21300;52.006;5.798;2022-10-22T04:41:17;12.70;95.80
35127;DHT22;21300;52.006;5.798;2022-10-22T04:43:44;12.70;95.80
35127;DHT22;21300;52.006;5.798;2022-10-22T04:46:11;12.70;95.80
35127;DHT22;21300;52.006;5.798;2022-10-22T04:48:38;12.60;95.70
35127;DHT22;21300;52.006;5.798;2022-10-22T04:51:05;12.70;95.80
35127;DHT22;21300;52.006;5.798;2022-10-22T04:53:33;12.70;95.80
35127;DHT22;21300;52.006;5.798;2022-10-22T04:56:12;12.70;95.80
35127;DHT22;21300;52.006;5.798;2022-10-22T04:58:38;12.70;95.80
35127;DHT22;21300;52.006;5.798;2022-10-22T05:01:18;12.60;96.10
35127;DHT22;21300;52.006;5.798;2022-10-22T05:03:45;12.60;95.80
35127;DHT22;21300;52.006;5.798;2022-10-22T05:06:11;12.60;95.80
35127;DHT22;21300;52.006;5.798;2022-10-22T05:08:38;12.60;95.70
35127;DHT22;21300;52.006;5.798;2022-10-22T05:11:15;12.70;95.80
35127;DHT22;21300;52.006;5.798;2022-10-22T05:13:41;12.60;95.80
35127;DHT22;21300;52.006;5.798;2022-10-22T05:16:07;12.60;95.70
35127;DHT22;21300;52.006;5.798;2022-10-22T05:18:37;12.60;95.80
35127;DHT22;21300;52.006;5.798;2022-10-22T05:21:07;12.60;95.70
35127;DHT22;21300;52.006;5.798;2022-10-22T05:23:33;12.60;95.70
35127;DHT22;21300;52.006;5.798;2022-10-22T05:26:05;12.60;95.70
35127;DHT22;21300;52.006;5.798;2022-10-22T05:28:31;12.60;95.70
35127;DHT22;21300;52.006;5.798;2022-10-22T05:30:58;12.60;95.70
35127;DHT22;21300;52.006;5.798;2022-10-22T05:33:25;12.60;95.80
35127;DHT22;21300;52.006;5.798;2022-10-22T05:35:51;12.60;95.70
35127;DHT22;21300;52.006;5.798;2022-10-22T05:38:17;12.60;95.80
35127;DHT22;21300;52.006;5.798;2022-10-22T05:40:43;12.60;95.80
35127;DHT22;21300;52.006;5.798;2022-10-22T05:43:09;12.60;95.70
35127;DHT22;21300;52.006;5.798;2022-10-22T05:45:36;12.60;95.80
35127;DHT22;21300;52.006;5.798;2022-10-22T05:48:02;12.60;95.70
35127;DHT22;21300;52.006;5.798;2022-10-22T05:50:28;12.60;95.70
35127;DHT22;21300;52.006;5.798;2022-10-22T05:52:54;12.60;95.70
35127;DHT22;21300;52.006;5.798;2022-10-22T05:55:19;12.60;95.70
35127;DHT22;21300;52.006;5.798;2022-10-22T05:57:45;12.60;95.70
35127;DHT22;21300;52.006;5.798;2022-10-22T06:00:11;12.60;95.70
35127;DHT22;21300;52.006;5.798;2022-10-22T06:02:37;12.60;95.70
35127;DHT22;21300;52.006;5.798;2022-10-22T06:05:02;12.60;95.70
35127;DHT22;21300;52.006;5.798;2022-10-22T06:07:28;12.60;95.70
35127;DHT22;21300;52.006;5.798;2022-10-22T06:09:54;12.60;95.70
35127;DHT22;21300;52.006;5.798;2022-10-22T06:12:20;12.60;95.80
35127;DHT22;21300;52.006;5.798;2022-10-22T06:14:45;12.50;96.10
35127;DHT22;21300;52.006;5.798;2022-10-22T06:17:11;12.50;96.90
35127;DHT22;21300;52.006;5.798;2022-10-22T06:19:37;12.50;97.20
35127;DHT22;21300;52.006;5.798;2022-10-22T06:22:03;12.50;97.30
35127;DHT22;21300;52.006;5.798;2022-10-22T06:24:29;12.50;97.10
35127;DHT22;21300;52.006;5.798;2022-10-22T06:26:55;12.50;97.00
35127;DHT22;21300;52.006;5.798;2022-10-22T06:29:21;12.50;97.00
35127;DHT22;21300;52.006;5.798;2022-10-22T06:31:46;12.50;96.70
35127;DHT22;21300;52.006;5.798;2022-10-22T06:34:13;12.50;96.90
35127;DHT22;21300;52.006;5.798;2022-10-22T06:36:39;12.50;96.70
35127;DHT22;21300;52.006;5.798;2022-10-22T06:39:10;12.50;96.80
35127;DHT22;21300;52.006;5.798;2022-10-22T06:41:36;12.50;96.70
35127;DHT22;21300;52.006;5.798;2022-10-22T06:44:01;12.50;96.80
35127;DHT22;21300;52.006;5.798;2022-10-22T06:46:27;12.50;96.60
35127;DHT22;21300;52.006;5.798;2022-10-22T06:48:57;12.50;96.60
35127;DHT22;21300;52.006;5.798;2022-10-22T06:51:24;12.50;96.60
35127;DHT22;21300;52.006;5.798;2022-10-22T06:53:50;12.50;96.60
35127;DHT22;21300;52.006;5.798;2022-10-22T06:56:21;12.50;96.40
35127;DHT22;21300;52.006;5.798;2022-10-22T06:58:50;12.50;96.50
35127;DHT22;21300;52.006;5.798;2022-10-22T07:01:18;12.50;96.40
35127;DHT22;21300;52.006;5.798;2022-10-22T07:03:44;12.50;96.40
35127;DHT22;21300;52.006;5.798;2022-10-22T07:06:12;12.50;96.30
35127;DHT22;21300;52.006;5.798;2022-10-22T07:08:39;12.50;96.40
35127;DHT22;21300;52.006;5.798;2022-10-22T07:13:31;12.50;96.30
35127;DHT22;21300;52.006;5.798;2022-10-22T07:16:17;12.50;96.30
35127;DHT22;21300;52.006;5.798;2022-10-22T07:18:43;12.50;96.30
35127;DHT22;21300;52.006;5.798;2022-10-22T07:21:10;12.50;96.30
35127;DHT22;21300;52.006;5.798;2022-10-22T07:23:37;12.50;96.30
35127;DHT22;21300;52.006;5.798;2022-10-22T07:26:03;12.50;96.30
35127;DHT22;21300;52.006;5.798;2022-10-22T07:28:32;12.50;96.20
35127;DHT22;21300;52.006;5.798;2022-10-22T07:30:58;12.50;96.20
35127;DHT22;21300;52.006;5.798;2022-10-22T07:33:24;12.50;96.30
35127;DHT22;21300;52.006;5.798;2022-10-22T07:35:50;12.50;96.30
35127;DHT22;21300;52.006;5.798;2022-10-22T07:38:16;12.50;96.30
35127;DHT22;21300;52.006;5.798;2022-10-22T07:40:41;12.60;96.30
35127;DHT22;21300;52.006;5.798;2022-10-22T07:43:07;12.50;96.30
35127;DHT22;21300;52.006;5.798;2022-10-22T07:45:33;12.60;96.20
35127;DHT22;21300;52.006;5.798;2022-10-22T07:47:58;12.60;96.20
35127;DHT22;21300;52.006;5.798;2022-10-22T07:50:25;12.60;96.20
35127;DHT22;21300;52.006;5.798;2022-10-22T07:52:50;12.60;96.10
35127;DHT22;21300;52.006;5.798;2022-10-22T07:55:16;12.60;96.10
35127;DHT22;21300;52.006;5.798;2022-10-22T07:57:42;12.60;96.10
35127;DHT22;21300;52.006;5.798;2022-10-22T08:00:08;12.60;96.10
35127;DHT22;21300;52.006;5.798;2022-10-22T08:02:34;12.60;96.10
35127;DHT22;21300;52.006;5.798;2022-10-22T08:04:59;12.60;96.10
35127;DHT22;21300;52.006;5.798;2022-10-22T08:07:25;12.60;96.20
35127;DHT22;21300;52.006;5.798;2022-10-22T08:09:51;12.60;96.30
35127;DHT22;21300;52.006;5.798;2022-10-22T08:12:16;12.60;96.20
35127;DHT22;21300;52.006;5.798;2022-10-22T08:14:42;12.60;96.20
35127;DHT22;21300;52.006;5.798;2022-10-22T08:17:07;12.60;96.10
35127;DHT22;21300;52.006;5.798;2022-10-22T08:19:33;12.70;96.10
35127;DHT22;21300;52.006;5.798;2022-10-22T08:22:00;12.70;96.10
35127;DHT22;21300;52.006;5.798;2022-10-22T08:24:26;12.70;96.10
35127;DHT22;21300;52.006;5.798;2022-10-22T08:26:52;12.70;96.10
35127;DHT22;21300;52.006;5.798;2022-10-22T08:29:20;12.70;96.10
35127;DHT22;21300;52.006;5.798;2022-10-22T08:31:47;12.70;96.10
35127;DHT22;21300;52.006;5.798;2022-10-22T08:34:13;12.70;96.10
35127;DHT22;21300;52.006;5.798;2022-10-22T08:36:39;12.70;96.00
35127;DHT22;21300;52.006;5.798;2022-10-22T08:39:04;12.80;96.10
35127;DHT22;21300;52.006;5.798;2022-10-22T08:41:30;12.80;96.10
35127;DHT22;21300;52.006;5.798;2022-10-22T08:44:19;12.80;96.10
35127;DHT22;21300;52.006;5.798;2022-10-22T08:49:35;12.80;96.00
35127;DHT22;21300;52.006;5.798;2022-10-22T08:52:01;12.80;95.90
35127;DHT22;21300;52.006;5.798;2022-10-22T08:54:46;12.80;96.00
35127;DHT22;21300;52.006;5.798;2022-10-22T08:58:09;12.80;96.10
35127;DHT22;21300;52.006;5.798;2022-10-22T09:00:36;12.90;96.10
35127;DHT22;21300;52.006;5.798;2022-10-22T09:03:24;12.90;96.10
35127;DHT22;21300;52.006;5.798;2022-10-22T09:06:09;12.90;96.10
35127;DHT22;21300;52.006;5.798;2022-10-22T09:08:36;12.90;96.10
35127;DHT22;21300;52.006;5.798;2022-10-22T09:13:40;12.90;95.90
35127;DHT22;21300;52.006;5.798;2022-10-22T09:19:35;12.90;96.00
35127;DHT22;21300;52.006;5.798;2022-10-22T09:24:50;13.00;96.00
35127;DHT22;21300;52.006;5.798;2022-10-22T09:27:26;13.00;96.00
35127;DHT22;21300;52.006;5.798;2022-10-22T09:29:52;13.00;95.90
35127;DHT22;21300;52.006;5.798;2022-10-22T09:32:18;13.00;95.90
35127;DHT22;21300;52.006;5.798;2022-10-22T09:34:45;13.00;95.90
35127;DHT22;21300;52.006;5.798;2022-10-22T09:37:11;13.10;95.90
35127;DHT22;21300;52.006;5.798;2022-10-22T09:39:39;13.10;95.80
35127;DHT22;21300;52.006;5.798;2022-10-22T09:42:06;13.10;95.80
35127;DHT22;21300;52.006;5.798;2022-10-22T09:44:34;13.10;95.70
35127;DHT22;21300;52.006;5.798;2022-10-22T09:47:06;13.10;95.70
35127;DHT22;21300;52.006;5.798;2022-10-22T09:49:48;13.20;95.70
35127;DHT22;21300;52.006;5.798;2022-10-22T09:52:26;13.20;95.70
35127;DHT22;21300;52.006;5.798;2022-10-22T09:54:52;13.20;95.60
35127;DHT22;21300;52.006;5.798;2022-10-22T09:57:21;13.20;95.70
35127;DHT22;21300;52.006;5.798;2022-10-22T09:59:50;13.20;95.70
35127;DHT22;21300;52.006;5.798;2022-10-22T10:02:21;13.20;95.60
35127;DHT22;21300;52.006;5.798;2022-10-22T10:07:34;13.30;95.40
35127;DHT22;21300;52.006;5.798;2022-10-22T10:10:00;13.30;95.50
35127;DHT22;21300;52.006;5.798;2022-10-22T10:12:51;13.30;95.40
35127;DHT22;21300;52.006;5.798;2022-10-22T10:15:44;13.30;95.40
35127;DHT22;21300;52.006;5.798;2022-10-22T10:22:31;13.30;95.40
35127;DHT22;21300;52.006;5.798;2022-10-22T10:27:40;13.40;95.40
35127;DHT22;21300;52.006;5.798;2022-10-22T10:30:21;13.50;95.60
35127;DHT22;21300;52.006;5.798;2022-10-22T10:33:11;13.40;95.40
35127;DHT22;21300;52.006;5.798;2022-10-22T10:35:53;13.50;95.40
35127;DHT22;21300;52.006;5.798;2022-10-22T10:38:41;13.50;95.30
35127;DHT22;21300;52.006;5.798;2022-10-22T10:41:16;13.50;95.40
35127;DHT22;21300;52.006;5.798;2022-10-22T10:49:09;13.60;95.60
35127;DHT22;21300;52.006;5.798;2022-10-22T10:51:46;13.70;95.60
35127;DHT22;21300;52.006;5.798;2022-10-22T10:54:17;13.70;95.50
35127;DHT22;21300;52.006;5.798;2022-10-22T10:56:57;13.70;95.50
35127;DHT22;21300;52.006;5.798;2022-10-22T11:07:30;13.80;95.60
35127;DHT22;21300;52.006;5.798;2022-10-22T11:12:47;13.80;95.50
35127;DHT22;21300;52.006;5.798;2022-10-22T11:15:27;13.80;95.60
35127;DHT22;21300;52.006;5.798;2022-10-22T11:17:59;13.90;95.50
35127;DHT22;21300;52.006;5.798;2022-10-22T11:23:43;13.90;95.40
35127;DHT22;21300;52.006;5.798;2022-10-22T11:26:56;13.90;95.50
35127;DHT22;21300;52.006;5.798;2022-10-22T11:28:58;13.90;95.40
35127;DHT22;21300;52.006;5.798;2022-10-22T11:31:24;14.00;95.40
35127;DHT22;21300;52.006;5.798;2022-10-22T11:36:35;14.00;95.40
35127;DHT22;21300;52.006;5.798;2022-10-22T11:39:03;14.00;95.20
35127;DHT22;21300;52.006;5.798;2022-10-22T11:41:32;14.00;95.20
35127;DHT22;21300;52.006;5.798;2022-10-22T11:44:20;14.10;95.30
35127;DHT22;21300;52.006;5.798;2022-10-22T11:47:08;14.10;95.20
35127;DHT22;21300;52.006;5.798;2022-10-22T11:49:46;14.10;95.20
35127;DHT22;21300;52.006;5.798;2022-10-22T11:55:02;14.20;95.10
35127;DHT22;21300;52.006;5.798;2022-10-22T11:57:47;14.20;95.00
35127;DHT22;21300;52.006;5.798;2022-10-22T12:00:40;14.20;95.00
35127;DHT22;21300;52.006;5.798;2022-10-22T12:06:15;14.30;94.90
35127;DHT22;21300;52.006;5.798;2022-10-22T12:11:40;14.30;94.90
35127;DHT22;21300;52.006;5.798;2022-10-22T12:14:49;14.30;94.80
35127;DHT22;21300;52.006;5.798;2022-10-22T12:17:16;14.40;94.80
35127;DHT22;21300;52.006;5.798;2022-10-22T12:19:44;14.40;94.70
35127;DHT22;21300;52.006;5.798;2022-10-22T12:22:30;14.40;94.70
35127;DHT22;21300;52.006;5.798;2022-10-22T12:24:59;14.40;94.70
35127;DHT22;21300;52.006;5.798;2022-10-22T12:29:59;14.40;94.50
35127;DHT22;21300;52.006;5.798;2022-10-22T12:32:36;14.50;94.50
35127;DHT22;21300;52.006;5.798;2022-10-22T12:35:08;14.50;94.60
35127;DHT22;21300;52.006;5.798;2022-10-22T12:37:38;14.50;94.60
35127;DHT22;21300;52.006;5.798;2022-10-22T12:42:53;14.60;94.50
35127;DHT22;21300;52.006;5.798;2022-10-22T12:45:20;14.50;94.40
35127;DHT22;21300;52.006;5.798;2022-10-22T12:47:47;14.50;94.40
35127;DHT22;21300;52.006;5.798;2022-10-22T12:50:19;14.60;94.50
35127;DHT22;21300;52.006;5.798;2022-10-22T12:52:46;14.60;94.40
35127;DHT22;21300;52.006;5.798;2022-10-22T12:55:22;14.60;94.30
35127;DHT22;21300;52.006;5.798;2022-10-22T12:57:50;14.60;94.30
35127;DHT22;21300;52.006;5.798;2022-10-22T13:00:28;14.60;94.20
35127;DHT22;21300;52.006;5.798;2022-10-22T13:02:57;14.60;94.20
35127;DHT22;21300;52.006;5.798;2022-10-22T13:08:11;14.70;94.20
35127;DHT22;21300;52.006;5.798;2022-10-22T13:10:51;14.70;94.60
35127;DHT22;21300;52.006;5.798;2022-10-22T13:13:30;14.70;94.20
35127;DHT22;21300;52.006;5.798;2022-10-22T13:16:12;14.70;94.30
35127;DHT22;21300;52.006;5.798;2022-10-22T13:18:38;14.70;94.10
35127;DHT22;21300;52.006;5.798;2022-10-22T13:21:03;14.70;94.50
35127;DHT22;21300;52.006;5.798;2022-10-22T13:23:32;14.80;94.10
35127;DHT22;21300;52.006;5.798;2022-10-22T13:26:16;14.80;94.10
35127;DHT22;21300;52.006;5.798;2022-10-22T13:28:48;14.80;94.00
35127;DHT22;21300;52.006;5.798;2022-10-22T13:31:17;14.80;94.00
35127;DHT22;21300;52.006;5.798;2022-10-22T13:33:45;14.80;93.90
35127;DHT22;21300;52.006;5.798;2022-10-22T13:36:15;14.80;94.10
35127;DHT22;21300;52.006;5.798;2022-10-22T13:38:42;14.80;93.90
35127;DHT22;21300;52.006;5.798;2022-10-22T13:41:18;14.80;93.90
35127;DHT22;21300;52.006;5.798;2022-10-22T13:43:44;14.90;94.00
35127;DHT22;21300;52.006;5.798;2022-10-22T13:46:10;14.90;93.80
35127;DHT22;21300;52.006;5.798;2022-10-22T13:48:35;14.90;93.90
35127;DHT22;21300;52.006;5.798;2022-10-22T13:51:01;14.90;93.80
35127;DHT22;21300;52.006;5.798;2022-10-22T13:53:27;14.90;93.80
35127;DHT22;21300;52.006;5.798;2022-10-22T13:55:54;14.90;93.80
35127;DHT22;21300;52.006;5.798;2022-10-22T13:58:22;14.90;93.80
35127;DHT22;21300;52.006;5.798;2022-10-22T14:00:55;14.90;93.70
35127;DHT22;21300;52.006;5.798;2022-10-22T14:03:30;15.00;93.80
35127;DHT22;21300;52.006;5.798;2022-10-22T14:05:57;15.00;93.70
35127;DHT22;21300;52.006;5.798;2022-10-22T14:08:23;14.90;93.70
35127;DHT22;21300;52.006;5.798;2022-10-22T14:10:50;15.00;93.70
35127;DHT22;21300;52.006;5.798;2022-10-22T14:13:18;15.00;93.60
35127;DHT22;21300;52.006;5.798;2022-10-22T14:15:46;15.00;93.60
35127;DHT22;21300;52.006;5.798;2022-10-22T14:18:17;15.00;93.70
35127;DHT22;21300;52.006;5.798;2022-10-22T14:20:48;15.00;93.60
35127;DHT22;21300;52.006;5.798;2022-10-22T14:23:19;15.00;93.60
35127;DHT22;21300;52.006;5.798;2022-10-22T14:25:46;15.00;93.60
35127;DHT22;21300;52.006;5.798;2022-10-22T14:28:12;15.00;93.60
35127;DHT22;21300;52.006;5.798;2022-10-22T14:30:38;15.00;93.60
35127;DHT22;21300;52.006;5.798;2022-10-22T14:33:15;15.00;93.50
35127;DHT22;21300;52.006;5.798;2022-10-22T14:35:41;15.00;93.50
35127;DHT22;21300;52.006;5.798;2022-10-22T14:38:07;15.10;93.60
35127;DHT22;21300;52.006;5.798;2022-10-22T14:40:32;15.10;93.50
35127;DHT22;21300;52.006;5.798;2022-10-22T14:42:58;15.10;93.50
35127;DHT22;21300;52.006;5.798;2022-10-22T14:45:25;15.10;93.50
35127;DHT22;21300;52.006;5.798;2022-10-22T14:47:52;15.10;93.50
35127;DHT22;21300;52.006;5.798;2022-10-22T14:50:20;15.10;93.40
35127;DHT22;21300;52.006;5.798;2022-10-22T14:52:46;15.10;93.40
35127;DHT22;21300;52.006;5.798;2022-10-22T14:55:13;15.10;93.40
35127;DHT22;21300;52.006;5.798;2022-10-22T14:57:40;15.10;93.40
35127;DHT22;21300;52.006;5.798;2022-10-22T15:00:09;15.10;93.40
35127;DHT22;21300;52.006;5.798;2022-10-22T15:02:35;15.10;93.40
35127;DHT22;21300;52.006;5.798;2022-10-22T15:05:00;15.10;93.40
35127;DHT22;21300;52.006;5.798;2022-10-22T15:07:26;15.10;93.40
35127;DHT22;21300;52.006;5.798;2022-10-22T15:09:52;15.10;93.40
35127;DHT22;21300;52.006;5.798;2022-10-22T15:12:18;15.10;93.30
35127;DHT22;21300;52.006;5.798;2022-10-22T15:14:48;15.10;93.40
35127;DHT22;21300;52.006;5.798;2022-10-22T15:17:15;15.10;93.40
35127;DHT22;21300;52.006;5.798;2022-10-22T15:19:41;15.10;93.40
35127;DHT22;21300;52.006;5.798;2022-10-22T15:22:08;15.10;93.40
35127;DHT22;21300;52.006;5.798;2022-10-22T15:24:34;15.10;93.40
35127;DHT22;21300;52.006;5.798;2022-10-22T15:26:59;15.10;93.40
35127;DHT22;21300;52.006;5.798;2022-10-22T15:29:25;15.10;93.40
35127;DHT22;21300;52.006;5.798;2022-10-22T15:31:53;15.10;93.40
35127;DHT22;21300;52.006;5.798;2022-10-22T15:34:33;15.10;93.40
35127;DHT22;21300;52.006;5.798;2022-10-22T15:37:02;15.10;93.40
35127;DHT22;21300;52.006;5.798;2022-10-22T15:39:28;15.10;93.40
35127;DHT22;21300;52.006;5.798;2022-10-22T15:41:54;15.10;93.40
35127;DHT22;21300;52.006;5.798;2022-10-22T15:44:25;15.10;93.40
35127;DHT22;21300;52.006;5.798;2022-10-22T15:46:51;15.10;93.40
35127;DHT22;21300;52.006;5.798;2022-10-22T15:49:20;15.10;93.40
35127;DHT22;21300;52.006;5.798;2022-10-22T15:51:45;15.10;93.40
35127;DHT22;21300;52.006;5.798;2022-10-22T15:57:00;15.10;93.40
35127;DHT22;21300;52.006;5.798;2022-10-22T15:59:28;15.10;93.40
35127;DHT22;21300;52.006;5.798;2022-10-22T16:01:53;15.10;93.40
35127;DHT22;21300;52.006;5.798;2022-10-22T16:04:19;15.10;93.40
35127;DHT22;21300;52.006;5.798;2022-10-22T16:06:50;15.10;93.50
35127;DHT22;21300;52.006;5.798;2022-10-22T16:09:23;15.10;93.50
35127;DHT22;21300;52.006;5.798;2022-10-22T16:11:49;15.10;93.50
35127;DHT22;21300;52.006;5.798;2022-10-22T16:14:17;15.10;93.60
35127;DHT22;21300;52.006;5.798;2022-10-22T16:16:46;15.00;93.60
35127;DHT22;21300;52.006;5.798;2022-10-22T16:19:13;15.00;93.80
35127;DHT22;21300;52.006;5.798;2022-10-22T16:21:39;14.90;94.70
35127;DHT22;21300;52.006;5.798;2022-10-22T16:24:07;14.90;94.90
35127;DHT22;21300;52.006;5.798;2022-10-22T16:26:33;14.90;94.80
35127;DHT22;21300;52.006;5.798;2022-10-22T16:28:59;14.80;95.10
35127;DHT22;21300;52.006;5.798;2022-10-22T16:31:25;14.60;95.60
35127;DHT22;21300;52.006;5.798;2022-10-22T16:33:50;14.60;95.80
35127;DHT22;21300;52.006;5.798;2022-10-22T16:36:18;14.60;95.70
35127;DHT22;21300;52.006;5.798;2022-10-22T16:38:46;14.40;95.60
35127;DHT22;21300;52.006;5.798;2022-10-22T16:41:20;14.40;95.50
35127;DHT22;21300;52.006;5.798;2022-10-22T16:43:47;14.50;95.30
35127;DHT22;21300;52.006;5.798;2022-10-22T16:46:14;14.60;95.00
35127;DHT22;21300;52.006;5.798;2022-10-22T16:48:47;14.70;94.70
35127;DHT22;21300;52.006;5.798;2022-10-22T16:51:16;14.80;94.60
35127;DHT22;21300;52.006;5.798;2022-10-22T16:53:42;14.70;94.40
35127;DHT22;21300;52.006;5.798;2022-10-22T16:56:12;14.70;94.40
35127;DHT22;21300;52.006;5.798;2022-10-22T17:01:24;14.70;94.30
35127;DHT22;21300;52.006;5.798;2022-10-22T17:03:51;14.70;94.20
35127;DHT22;21300;52.006;5.798;2022-10-22T17:06:19;14.70;94.20